Portada
METAR-TAF:

METAR-TAF

Aeroports :

Independence Municipal Airport

Independence, Iowa, Estats Units d'Amèrica

latitud: 42-27N, longitud: 091-56W, altitud: 298 m

Observació

L'informe es va fer fa 19 minuts, a les 12:55 UTC
Vent 9 kt del Est
Temperatura 20°C
Humitat 100%
Pressió 1011 hPa

METAR: KIIB 201255Z AUTO 08009KT 20/20 A2986 RMK AO2 T02020197 PWINO

Hora: 08:14 (13:14 UTC)


TAF: manca

Observacions i pronòstics meteorològics de més de 4000 aeroports (METAR i TAF).

Les estacions disponibles són els punts grocs i vermells al mapa.

Posi el ratolí al punt desitjat per veure el nom de l'estació.

Feu clic per veure les observacions i els pronòstics meteorològics.

Per canviar el mapa: feu clic els botons verds amb una creu de color negre per apropar; al botó verd amb un guió per allunyar la imatge; o en les fletxes verdes per a mapes adjacents.


METAR-TAF: